Sign in

Advertising

Sponsor

Info

Aviation weather - KDAB

METAR KDAB 070753Z 29010KT 10SM -RA OVC009 07/07 A2996 RMK AO2 SLP144 P0000 T00720067 $

TAF KDAB 070544Z 0706/0806 31012G20KT P6SM -RA OVC006 FM070900 31015G20KT P6SM BKN008 OVC010 FM071500 31017G25KT P6SM SCT008 BKN010 FM071900 31018G27KT P6SM SCT020 BKN035 FM080000 29010KT P6SM SKC

Aviation weather from ADDS. Re-check weather before flight.

-